sensor_id;sensor_type;location;lat;lon;timestamp;pressure;altitude;pressure_sealevel;temperature;humidity
40650;BME280;26342;42.826;23.992;2024-02-21T00:01:23;96019.97;;;5.96;100.00
40650;BME280;26342;42.826;23.992;2024-02-21T00:03:49;96011.44;;;5.94;100.00
40650;BME280;26342;42.826;23.992;2024-02-21T00:06:14;96019.97;;;5.96;100.00
40650;BME280;26342;42.826;23.992;2024-02-21T00:08:39;96016.94;;;5.93;100.00
40650;BME280;26342;42.826;23.992;2024-02-21T00:11:05;96010.81;;;5.92;100.00
40650;BME280;26342;42.826;23.992;2024-02-21T00:13:30;96011.81;;;5.98;100.00
40650;BME280;26342;42.826;23.992;2024-02-21T00:15:56;96009.38;;;5.89;100.00
40650;BME280;26342;42.826;23.992;2024-02-21T00:18:22;96011.44;;;5.81;100.00
40650;BME280;26342;42.826;23.992;2024-02-21T00:20:47;96007.22;;;5.73;100.00
40650;BME280;26342;42.826;23.992;2024-02-21T00:23:12;96009.41;;;5.76;100.00
40650;BME280;26342;42.826;23.992;2024-02-21T00:25:38;96007.00;;;5.75;100.00
40650;BME280;26342;42.826;23.992;2024-02-21T00:28:04;96012.38;;;5.62;100.00
40650;BME280;26342;42.826;23.992;2024-02-21T00:30:31;95997.91;;;5.57;100.00
40650;BME280;26342;42.826;23.992;2024-02-21T00:32:56;96011.31;;;5.69;100.00
40650;BME280;26342;42.826;23.992;2024-02-21T00:35:22;96017.00;;;5.66;100.00
40650;BME280;26342;42.826;23.992;2024-02-21T00:37:47;96008.72;;;5.56;100.00
40650;BME280;26342;42.826;23.992;2024-02-21T00:40:12;96002.00;;;5.53;100.00
40650;BME280;26342;42.826;23.992;2024-02-21T00:42:38;95999.97;;;5.49;100.00
40650;BME280;26342;42.826;23.992;2024-02-21T00:45:04;95994.69;;;5.49;100.00
40650;BME280;26342;42.826;23.992;2024-02-21T00:47:29;95981.69;;;5.41;100.00
40650;BME280;26342;42.826;23.992;2024-02-21T00:49:55;95984.31;;;5.47;100.00
40650;BME280;26342;42.826;23.992;2024-02-21T00:52:20;95989.16;;;5.50;100.00
40650;BME280;26342;42.826;23.992;2024-02-21T00:54:46;95991.22;;;5.48;100.00
40650;BME280;26342;42.826;23.992;2024-02-21T00:57:11;95993.66;;;5.50;100.00
40650;BME280;26342;42.826;23.992;2024-02-21T00:59:37;95984.09;;;5.49;100.00
40650;BME280;26342;42.826;23.992;2024-02-21T01:02:03;95988.38;;;5.50;100.00
40650;BME280;26342;42.826;23.992;2024-02-21T01:04:28;95975.97;;;5.44;100.00
40650;BME280;26342;42.826;23.992;2024-02-21T01:06:53;95975.72;;;5.52;100.00
40650;BME280;26342;42.826;23.992;2024-02-21T01:09:19;95976.34;;;5.54;100.00
40650;BME280;26342;42.826;23.992;2024-02-21T01:11:44;95978.00;;;5.48;100.00
40650;BME280;26342;42.826;23.992;2024-02-21T01:14:09;95972.50;;;5.43;100.00
40650;BME280;26342;42.826;23.992;2024-02-21T01:16:36;95974.31;;;5.49;100.00
40650;BME280;26342;42.826;23.992;2024-02-21T01:19:01;95962.94;;;5.42;100.00
40650;BME280;26342;42.826;23.992;2024-02-21T01:21:27;95975.97;;;5.44;100.00
40650;BME280;26342;42.826;23.992;2024-02-21T01:23:52;95971.69;;;5.43;100.00
40650;BME280;26342;42.826;23.992;2024-02-21T01:26:18;95961.75;;;5.38;100.00
40650;BME280;26342;42.826;23.992;2024-02-21T01:28:43;95965.38;;;5.44;100.00
40650;BME280;26342;42.826;23.992;2024-02-21T01:31:08;95962.09;;;5.48;100.00
40650;BME280;26342;42.826;23.992;2024-02-21T01:33:34;95959.06;;;5.45;100.00
40650;BME280;26342;42.826;23.992;2024-02-21T01:36:04;95958.06;;;5.46;100.00
40650;BME280;26342;42.826;23.992;2024-02-21T01:38:32;95953.94;;;5.50;100.00
40650;BME280;26342;42.826;23.992;2024-02-21T01:40:58;95944.19;;;5.44;100.00
40650;BME280;26342;42.826;23.992;2024-02-21T01:43:23;95943.22;;;5.38;100.00
40650;BME280;26342;42.826;23.992;2024-02-21T01:45:50;95939.78;;;5.38;100.00
40650;BME280;26342;42.826;23.992;2024-02-21T01:48:19;95943.84;;;5.33;100.00
40650;BME280;26342;42.826;23.992;2024-02-21T01:50:45;95936.94;;;5.26;100.00
40650;BME280;26342;42.826;23.992;2024-02-21T01:53:13;95936.72;;;5.27;100.00
40650;BME280;26342;42.826;23.992;2024-02-21T01:55:45;95940.84;;;5.23;100.00
40650;BME280;26342;42.826;23.992;2024-02-21T01:58:12;95939.59;;;5.26;100.00
40650;BME280;26342;42.826;23.992;2024-02-21T02:00:40;95933.28;;;5.27;100.00
40650;BME280;26342;42.826;23.992;2024-02-21T02:03:08;95936.72;;;5.27;100.00
40650;BME280;26342;42.826;23.992;2024-02-21T02:05:35;95921.91;;;5.20;100.00
40650;BME280;26342;42.826;23.992;2024-02-21T02:08:01;95938.97;;;5.30;100.00
40650;BME280;26342;42.826;23.992;2024-02-21T02:10:26;95932.88;;;5.30;100.00
40650;BME280;26342;42.826;23.992;2024-02-21T02:12:52;95943.22;;;5.38;100.00
40650;BME280;26342;42.826;23.992;2024-02-21T02:15:17;95940.16;;;5.35;100.00
40650;BME280;26342;42.826;23.992;2024-02-21T02:17:43;95937.31;;;5.36;100.00
40650;BME280;26342;42.826;23.992;2024-02-21T02:20:08;95940.16;;;5.35;100.00
40650;BME280;26342;42.826;23.992;2024-02-21T02:22:35;95943.16;;;5.45;100.00
40650;BME280;26342;42.826;23.992;2024-02-21T02:25:03;95945.00;;;5.44;100.00
40650;BME280;26342;42.826;23.992;2024-02-21T02:27:29;95943.03;;;5.33;100.00
40650;BME280;26342;42.826;23.992;2024-02-21T02:29:54;95939.38;;;5.27;100.00
40650;BME280;26342;42.826;23.992;2024-02-21T02:32:19;95941.44;;;5.25;100.00
40650;BME280;26342;42.826;23.992;2024-02-21T02:34:45;95941.22;;;5.27;100.00
40650;BME280;26342;42.826;23.992;2024-02-21T02:37:10;95933.88;;;5.29;100.00
40650;BME280;26342;42.826;23.992;2024-02-21T02:39:36;95941.41;;;5.32;100.00
40650;BME280;26342;42.826;23.992;2024-02-21T02:42:02;95925.13;;;5.28;100.00
40650;BME280;26342;42.826;23.992;2024-02-21T02:44:27;95929.59;;;5.28;100.00
40650;BME280;26342;42.826;23.992;2024-02-21T02:46:52;95934.53;;;5.18;100.00
40650;BME280;26342;42.826;23.992;2024-02-21T02:49:18;95930.88;;;5.19;100.00
40650;BME280;26342;42.826;23.992;2024-02-21T02:51:43;95933.72;;;5.17;100.00
40650;BME280;26342;42.826;23.992;2024-02-21T02:54:09;95949.56;;;5.30;100.00
40650;BME280;26342;42.826;23.992;2024-02-21T02:56:35;95941.63;;;5.30;100.00
40650;BME280;26342;42.826;23.992;2024-02-21T02:59:00;95943.47;;;5.30;100.00
40650;BME280;26342;42.826;23.992;2024-02-21T03:01:26;95940.19;;;5.28;100.00
40650;BME280;26342;42.826;23.992;2024-02-21T03:03:52;95934.50;;;5.24;100.00
40650;BME280;26342;42.826;23.992;2024-02-21T03:06:18;95936.34;;;5.24;100.00
40650;BME280;26342;42.826;23.992;2024-02-21T03:08:43;95929.00;;;5.26;100.00
40650;BME280;26342;42.826;23.992;2024-02-21T03:11:09;95933.88;;;5.29;100.00
40650;BME280;26342;42.826;23.992;2024-02-21T03:13:36;95935.31;;;5.25;100.00
40650;BME280;26342;42.826;23.992;2024-02-21T03:16:01;95931.22;;;5.29;100.00
40650;BME280;26342;42.826;23.992;2024-02-21T03:18:27;95932.88;;;5.30;100.00
40650;BME280;26342;42.826;23.992;2024-02-21T03:20:52;95927.00;;;5.21;100.00
40650;BME280;26342;42.826;23.992;2024-02-21T03:23:18;95923.34;;;5.22;100.00
40650;BME280;26342;42.826;23.992;2024-02-21T03:25:43;95942.22;;;5.32;100.00
40650;BME280;26342;42.826;23.992;2024-02-21T03:28:08;95921.75;;;5.15;100.00
40650;BME280;26342;42.826;23.992;2024-02-21T03:30:34;95935.31;;;5.25;100.00
40650;BME280;26342;42.826;23.992;2024-02-21T03:32:59;95939.78;;;5.31;100.00
40650;BME280;26342;42.826;23.992;2024-02-21T03:35:26;95933.50;;;5.25;100.00
40650;BME280;26342;42.826;23.992;2024-02-21T03:37:52;95943.47;;;5.30;100.00
40650;BME280;26342;42.826;23.992;2024-02-21T03:40:17;95939.16;;;5.29;100.00
40650;BME280;26342;42.826;23.992;2024-02-21T03:42:43;95936.94;;;5.26;100.00
40650;BME280;26342;42.826;23.992;2024-02-21T03:45:09;95938.78;;;5.25;100.00
40650;BME280;26342;42.826;23.992;2024-02-21T03:47:34;95938.19;;;5.23;100.00
40650;BME280;26342;42.826;23.992;2024-02-21T03:50:00;95945.72;;;5.20;100.00
40650;BME280;26342;42.826;23.992;2024-02-21T03:52:25;95950.41;;;5.24;100.00
40650;BME280;26342;42.826;23.992;2024-02-21T03:54:50;95945.53;;;5.21;100.00
40650;BME280;26342;42.826;23.992;2024-02-21T03:57:16;95951.00;;;5.20;100.00
40650;BME280;26342;42.826;23.992;2024-02-21T03:59:42;95944.91;;;5.13;100.00
40650;BME280;26342;42.826;23.992;2024-02-21T04:02:08;95956.13;;;5.15;100.00
40650;BME280;26342;42.826;23.992;2024-02-21T04:04:36;95961.00;;;5.11;100.00
40650;BME280;26342;42.826;23.992;2024-02-21T04:07:02;95959.16;;;5.12;100.00
40650;BME280;26342;42.826;23.992;2024-02-21T04:09:32;95962.25;;;5.09;100.00
40650;BME280;26342;42.826;23.992;2024-02-21T04:11:58;95951.47;;;5.03;100.00
40650;BME280;26342;42.826;23.992;2024-02-21T04:14:24;95938.66;;;5.00;100.00
40650;BME280;26342;42.826;23.992;2024-02-21T04:16:49;95957.16;;;5.07;100.00
40650;BME280;26342;42.826;23.992;2024-02-21T04:19:15;95949.84;;;5.02;100.00
40650;BME280;26342;42.826;23.992;2024-02-21T04:21:40;95952.28;;;5.04;100.00
40650;BME280;26342;42.826;23.992;2024-02-21T04:24:05;95954.69;;;5.12;100.00
40650;BME280;26342;42.826;23.992;2024-02-21T04:26:31;95945.78;;;5.07;100.00
40650;BME280;26342;42.826;23.992;2024-02-21T04:28:57;95948.59;;;5.05;100.00
40650;BME280;26342;42.826;23.992;2024-02-21T04:31:22;95946.59;;;5.07;100.00
40650;BME280;26342;42.826;23.992;2024-02-21T04:33:48;95947.41;;;5.08;100.00
40650;BME280;26342;42.826;23.992;2024-02-21T04:36:13;95949.63;;;5.11;100.00
40650;BME280;26342;42.826;23.992;2024-02-21T04:38:39;95945.97;;;5.05;100.00
40650;BME280;26342;42.826;23.992;2024-02-21T04:41:05;95943.75;;;4.95;100.00
40650;BME280;26342;42.826;23.992;2024-02-21T04:43:31;95958.00;;;5.01;100.00
40650;BME280;26342;42.826;23.992;2024-02-21T04:45:56;95961.22;;;5.03;100.00
40650;BME280;26342;42.826;23.992;2024-02-21T04:48:22;95957.97;;;5.08;100.00
40650;BME280;26342;42.826;23.992;2024-02-21T04:50:47;95961.22;;;5.10;100.00
40650;BME280;26342;42.826;23.992;2024-02-21T04:53:13;95960.63;;;5.01;100.00
40650;BME280;26342;42.826;23.992;2024-02-21T04:55:38;95948.44;;;4.93;100.00
40650;BME280;26342;42.826;23.992;2024-02-21T04:58:05;95951.31;;;4.92;100.00
40650;BME280;26342;42.826;23.992;2024-02-21T05:00:30;95950.88;;;4.88;100.00
40650;BME280;26342;42.826;23.992;2024-02-21T05:02:56;95955.56;;;4.93;100.00
40650;BME280;26342;42.826;23.992;2024-02-21T05:05:21;95955.56;;;4.93;100.00
40650;BME280;26342;42.826;23.992;2024-02-21T05:07:46;95952.94;;;4.93;100.00
40650;BME280;26342;42.826;23.992;2024-02-21T05:10:12;95947.22;;;4.89;100.00
40650;BME280;26342;42.826;23.992;2024-02-21T05:12:37;95953.53;;;4.95;100.00
40650;BME280;26342;42.826;23.992;2024-02-21T05:15:03;95955.78;;;4.98;100.00
40650;BME280;26342;42.826;23.992;2024-02-21T05:17:29;95955.56;;;4.99;100.00
40650;BME280;26342;42.826;23.992;2024-02-21T05:19:54;95959.63;;;5.02;100.00
40650;BME280;26342;42.826;23.992;2024-02-21T05:22:20;95958.19;;;4.99;100.00
40650;BME280;26342;42.826;23.992;2024-02-21T05:24:45;95955.13;;;5.02;100.00
40650;BME280;26342;42.826;23.992;2024-02-21T05:27:11;95956.53;;;5.05;100.00
40650;BME280;26342;42.826;23.992;2024-02-21T05:29:36;95960.03;;;4.99;100.00
40650;BME280;26342;42.826;23.992;2024-02-21T05:32:01;95964.31;;;5.00;100.00
40650;BME280;26342;42.826;23.992;2024-02-21T05:34:27;95964.50;;;4.98;100.00
40650;BME280;26342;42.826;23.992;2024-02-21T05:36:53;95960.66;;;4.94;100.00
40650;BME280;26342;42.826;23.992;2024-02-21T05:39:19;95955.94;;;4.96;100.00
40650;BME280;26342;42.826;23.992;2024-02-21T05:41:45;95963.06;;;4.96;100.00
40650;BME280;26342;42.826;23.992;2024-02-21T05:44:11;95964.31;;;4.93;100.00
40650;BME280;26342;42.826;23.992;2024-02-21T05:46:36;95974.47;;;4.96;100.00
40650;BME280;26342;42.826;23.992;2024-02-21T05:49:01;95959.63;;;4.95;100.00
40650;BME280;26342;42.826;23.992;2024-02-21T05:51:27;95962.47;;;4.94;100.00
40650;BME280;26342;42.826;23.992;2024-02-21T05:53:52;95966.97;;;4.93;100.00
40650;BME280;26342;42.826;23.992;2024-02-21T05:56:18;95965.13;;;4.94;100.00
40650;BME280;26342;42.826;23.992;2024-02-21T05:58:44;95983.22;;;4.97;100.00
40650;BME280;26342;42.826;23.992;2024-02-21T06:01:10;95978.34;;;5.00;100.00
40650;BME280;26342;42.826;23.992;2024-02-21T06:03:36;95983.63;;;5.00;100.00
40650;BME280;26342;42.826;23.992;2024-02-21T06:06:02;95991.97;;;4.97;100.00
40650;BME280;26342;42.826;23.992;2024-02-21T06:08:28;95989.94;;;4.93;100.00
40650;BME280;26342;42.826;23.992;2024-02-21T06:10:53;95991.78;;;4.92;100.00
40650;BME280;26342;42.826;23.992;2024-02-21T06:13:28;95997.66;;;5.01;100.00
40650;BME280;26342;42.826;23.992;2024-02-21T06:15:54;95985.25;;;5.01;100.00
40650;BME280;26342;42.826;23.992;2024-02-21T06:18:20;96001.50;;;5.05;100.00
40650;BME280;26342;42.826;23.992;2024-02-21T06:20:46;96001.13;;;5.08;100.00
40650;BME280;26342;42.826;23.992;2024-02-21T06:23:12;96006.56;;;5.13;100.00
40650;BME280;26342;42.826;23.992;2024-02-21T06:25:38;96010.66;;;5.16;100.00
40650;BME280;26342;42.826;23.992;2024-02-21T06:28:05;95979.94;;;5.08;100.00
40650;BME280;26342;42.826;23.992;2024-02-21T06:30:30;95997.59;;;5.27;100.00
40650;BME280;26342;42.826;23.992;2024-02-21T06:32:56;96006.97;;;5.30;100.00
40650;BME280;26342;42.826;23.992;2024-02-21T06:35:22;96003.91;;;5.33;100.00
40650;BME280;26342;42.826;23.992;2024-02-21T06:37:49;96004.28;;;5.37;100.00
40650;BME280;26342;42.826;23.992;2024-02-21T06:40:23;96008.16;;;5.41;100.00
40650;BME280;26342;42.826;23.992;2024-02-21T06:42:49;96017.69;;;5.48;100.00
40650;BME280;26342;42.826;23.992;2024-02-21T06:45:14;96011.16;;;5.51;100.00
40650;BME280;26342;42.826;23.992;2024-02-21T06:47:40;96015.84;;;5.55;100.00
40650;BME280;26342;42.826;23.992;2024-02-21T06:50:06;96017.03;;;5.59;100.00
40650;BME280;26342;42.826;23.992;2024-02-21T06:52:31;96020.09;;;5.63;100.00
40650;BME280;26342;42.826;23.992;2024-02-21T06:54:57;96020.69;;;5.65;100.00
40650;BME280;26342;42.826;23.992;2024-02-21T06:57:22;96015.97;;;5.74;100.00
40650;BME280;26342;42.826;23.992;2024-02-21T06:59:48;96020.84;;;5.77;100.00
40650;BME280;26342;42.826;23.992;2024-02-21T07:02:14;96021.44;;;5.79;100.00
40650;BME280;26342;42.826;23.992;2024-02-21T07:04:39;96018.00;;;5.78;100.00
40650;BME280;26342;42.826;23.992;2024-02-21T07:07:05;96016.16;;;5.79;100.00
40650;BME280;26342;42.826;23.992;2024-02-21T07:09:30;96023.06;;;5.80;100.00
40650;BME280;26342;42.826;23.992;2024-02-21T07:11:58;96016.31;;;5.84;100.00
40650;BME280;26342;42.826;23.992;2024-02-21T07:14:23;96018.34;;;5.95;100.00
40650;BME280;26342;42.826;23.992;2024-02-21T07:16:48;96014.19;;;6.06;100.00
40650;BME280;26342;42.826;23.992;2024-02-21T07:19:14;96017.63;;;6.13;100.00
40650;BME280;26342;42.826;23.992;2024-02-21T07:21:39;96012.56;;;6.11;100.00
40650;BME280;26342;42.826;23.992;2024-02-21T07:24:06;96016.53;;;6.27;100.00
40650;BME280;26342;42.826;23.992;2024-02-21T07:26:32;96008.53;;;6.34;100.00
40650;BME280;26342;42.826;23.992;2024-02-21T07:28:58;96016.38;;;6.47;100.00
40650;BME280;26342;42.826;23.992;2024-02-21T07:31:24;96013.69;;;6.54;100.00
40650;BME280;26342;42.826;23.992;2024-02-21T07:33:49;96016.28;;;6.60;100.00
40650;BME280;26342;42.826;23.992;2024-02-21T07:36:15;96017.41;;;6.71;100.00
40650;BME280;26342;42.826;23.992;2024-02-21T07:38:42;96001.69;;;6.76;100.00
40650;BME280;26342;42.826;23.992;2024-02-21T07:41:07;96008.09;;;6.87;100.00
40650;BME280;26342;42.826;23.992;2024-02-21T07:43:33;95999.78;;;6.83;100.00
40650;BME280;26342;42.826;23.992;2024-02-21T07:45:58;96008.97;;;7.06;100.00
40650;BME280;26342;42.826;23.992;2024-02-21T07:48:23;96012.66;;;7.05;100.00
40650;BME280;26342;42.826;23.992;2024-02-21T07:50:52;96007.66;;;7.15;100.00
40650;BME280;26342;42.826;23.992;2024-02-21T07:53:17;96001.69;;;7.19;100.00
40650;BME280;26342;42.826;23.992;2024-02-21T07:55:43;96003.25;;;7.27;100.00
40650;BME280;26342;42.826;23.992;2024-02-21T07:58:08;96006.19;;;7.37;100.00
40650;BME280;26342;42.826;23.992;2024-02-21T08:00:34;96007.06;;;7.49;100.00
40650;BME280;26342;42.826;23.992;2024-02-21T08:02:59;96001.47;;;7.57;100.00
40650;BME280;26342;42.826;23.992;2024-02-21T08:05:25;96004.84;;;7.65;100.00
40650;BME280;26342;42.826;23.992;2024-02-21T08:07:50;96005.34;;;7.73;100.00
40650;BME280;26342;42.826;23.992;2024-02-21T08:10:15;96003.81;;;7.84;100.00
40650;BME280;26342;42.826;23.992;2024-02-21T08:12:41;96004.56;;;7.91;100.00
40650;BME280;26342;42.826;23.992;2024-02-21T08:15:07;95997.72;;;7.95;100.00
40650;BME280;26342;42.826;23.992;2024-02-21T08:17:37;95992.09;;;8.03;100.00
40650;BME280;26342;42.826;23.992;2024-02-21T08:20:04;96004.31;;;7.93;100.00
40650;BME280;26342;42.826;23.992;2024-02-21T08:22:29;96004.16;;;8.06;100.00
40650;BME280;26342;42.826;23.992;2024-02-21T08:24:55;95982.56;;;8.14;100.00
40650;BME280;26342;42.826;23.992;2024-02-21T08:27:20;95995.56;;;8.34;100.00
40650;BME280;26342;42.826;23.992;2024-02-21T08:29:46;95998.06;;;8.47;100.00
40650;BME280;26342;42.826;23.992;2024-02-21T08:32:12;96003.38;;;8.47;100.00
40650;BME280;26342;42.826;23.992;2024-02-21T08:34:37;95997.16;;;8.53;100.00
40650;BME280;26342;42.826;23.992;2024-02-21T08:37:02;95992.41;;;8.67;100.00
40650;BME280;26342;42.826;23.992;2024-02-21T08:39:28;95998.00;;;8.77;100.00
40650;BME280;26342;42.826;23.992;2024-02-21T08:41:55;96002.75;;;8.87;100.00
40650;BME280;26342;42.826;23.992;2024-02-21T08:44:22;95998.69;;;8.84;100.00
40650;BME280;26342;42.826;23.992;2024-02-21T08:46:49;95998.91;;;8.83;100.00
40650;BME280;26342;42.826;23.992;2024-02-21T08:49:14;95989.09;;;8.95;100.00
40650;BME280;26342;42.826;23.992;2024-02-21T08:51:40;95989.22;;;9.12;100.00
40650;BME280;26342;42.826;23.992;2024-02-21T08:54:05;95991.97;;;9.29;100.00
40650;BME280;26342;42.826;23.992;2024-02-21T08:56:31;95987.34;;;9.36;100.00
40650;BME280;26342;42.826;23.992;2024-02-21T08:58:56;95992.44;;;9.49;100.00
40650;BME280;26342;42.826;23.992;2024-02-21T09:01:23;95996.34;;;9.58;100.00
40650;BME280;26342;42.826;23.992;2024-02-21T09:03:48;95983.78;;;9.82;100.00
40650;BME280;26342;42.826;23.992;2024-02-21T09:06:17;95978.09;;;10.07;100.00
40650;BME280;26342;42.826;23.992;2024-02-21T09:08:43;95978.59;;;10.32;100.00
40650;BME280;26342;42.826;23.992;2024-02-21T09:11:08;95973.53;;;10.48;100.00
40650;BME280;26342;42.826;23.992;2024-02-21T09:13:34;95977.34;;;10.52;100.00
40650;BME280;26342;42.826;23.992;2024-02-21T09:15:59;95966.72;;;10.40;100.00
40650;BME280;26342;42.826;23.992;2024-02-21T09:18:25;95976.75;;;10.50;100.00
40650;BME280;26342;42.826;23.992;2024-02-21T09:20:50;95965.63;;;10.53;100.00
40650;BME280;26342;42.826;23.992;2024-02-21T09:23:16;95986.72;;;10.71;100.00
40650;BME280;26342;42.826;23.992;2024-02-21T09:25:41;95980.81;;;10.86;100.00
40650;BME280;26342;42.826;23.992;2024-02-21T09:28:07;95977.59;;;10.84;100.00
40650;BME280;26342;42.826;23.992;2024-02-21T09:30:32;95977.84;;;10.99;100.00
40650;BME280;26342;42.826;23.992;2024-02-21T09:32:58;95972.56;;;11.04;100.00
40650;BME280;26342;42.826;23.992;2024-02-21T09:35:25;95954.84;;;10.98;100.00
40650;BME280;26342;42.826;23.992;2024-02-21T09:37:52;95950.00;;;10.95;100.00
40650;BME280;26342;42.826;23.992;2024-02-21T09:40:17;95965.16;;;11.28;100.00
40650;BME280;26342;42.826;23.992;2024-02-21T09:42:43;95968.81;;;11.22;100.00
40650;BME280;26342;42.826;23.992;2024-02-21T09:45:20;95976.53;;;11.40;100.00
40650;BME280;26342;42.826;23.992;2024-02-21T09:48:13;95975.56;;;11.68;100.00
40650;BME280;26342;42.826;23.992;2024-02-21T09:50:40;95978.50;;;11.89;100.00
40650;BME280;26342;42.826;23.992;2024-02-21T09:53:06;95983.84;;;12.11;100.00
40650;BME280;26342;42.826;23.992;2024-02-21T09:55:33;95970.75;;;12.14;100.00
40650;BME280;26342;42.826;23.992;2024-02-21T09:58:01;95976.63;;;12.65;100.00
40650;BME280;26342;42.826;23.992;2024-02-21T10:18:02;95942.09;;;14.26;83.41
40650;BME280;26342;42.826;23.992;2024-02-21T10:20:28;95948.09;;;14.54;78.39
40650;BME280;26342;42.826;23.992;2024-02-21T10:23:03;95948.63;;;14.56;74.66
40650;BME280;26342;42.826;23.992;2024-02-21T10:25:33;95934.66;;;14.48;71.34
40650;BME280;26342;42.826;23.992;2024-02-21T10:27:59;95938.09;;;14.39;72.94
40650;BME280;26342;42.826;23.992;2024-02-21T10:30:24;95937.00;;;14.30;68.61
40650;BME280;26342;42.826;23.992;2024-02-21T10:32:50;95932.22;;;14.52;69.32
40650;BME280;26342;42.826;23.992;2024-02-21T10:35:29;95923.25;;;14.01;67.44
40650;BME280;26342;42.826;23.992;2024-02-21T10:37:58;95932.28;;;13.69;77.37
40650;BME280;26342;42.826;23.992;2024-02-21T10:40:28;95920.19;;;13.19;69.35
40650;BME280;26342;42.826;23.992;2024-02-21T10:42:57;95913.47;;;13.11;85.08
40650;BME280;26342;42.826;23.992;2024-02-21T10:45:29;95919.28;;;12.98;75.73
40650;BME280;26342;42.826;23.992;2024-02-21T10:48:08;95912.97;;;12.77;88.22
40650;BME280;26342;42.826;23.992;2024-02-21T10:50:56;95904.91;;;12.72;86.33
40650;BME280;26342;42.826;23.992;2024-02-21T10:56:49;95906.75;;;12.35;77.01
40650;BME280;26342;42.826;23.992;2024-02-21T10:59:08;95901.56;;;12.23;76.17
40650;BME280;26342;42.826;23.992;2024-02-21T11:01:34;95901.25;;;12.19;82.53
40650;BME280;26342;42.826;23.992;2024-02-21T11:04:11;95895.66;;;12.21;82.52
40650;BME280;26342;42.826;23.992;2024-02-21T11:06:38;95899.06;;;12.16;81.60
40650;BME280;26342;42.826;23.992;2024-02-21T11:09:09;95895.41;;;11.95;78.78
40650;BME280;26342;42.826;23.992;2024-02-21T11:11:35;95892.50;;;11.75;85.80
40650;BME280;26342;42.826;23.992;2024-02-21T11:14:09;95887.84;;;11.65;86.77
40650;BME280;26342;42.826;23.992;2024-02-21T11:16:39;95888.03;;;11.37;84.28
40650;BME280;26342;42.826;23.992;2024-02-21T11:19:09;95890.91;;;11.30;89.95
40650;BME280;26342;42.826;23.992;2024-02-21T11:21:36;95892.72;;;11.25;91.97
40650;BME280;26342;42.826;23.992;2024-02-21T11:24:05;95894.31;;;11.26;90.06
40650;BME280;26342;42.826;23.992;2024-02-21T11:26:31;95898.31;;;11.23;92.49
40650;BME280;26342;42.826;23.992;2024-02-21T11:29:01;95884.94;;;11.23;96.68
40650;BME280;26342;42.826;23.992;2024-02-21T11:31:38;95890.22;;;11.18;92.55
40650;BME280;26342;42.826;23.992;2024-02-21T11:34:04;95882.06;;;11.08;90.56
40650;BME280;26342;42.826;23.992;2024-02-21T11:36:29;95890.66;;;11.10;89.22
40650;BME280;26342;42.826;23.992;2024-02-21T11:39:03;95881.44;;;11.01;95.31
40650;BME280;26342;42.826;23.992;2024-02-21T11:41:29;95875.13;;;10.90;96.54
40650;BME280;26342;42.826;23.992;2024-02-21T11:43:55;95881.13;;;10.97;92.81
40650;BME280;26342;42.826;23.992;2024-02-21T11:46:21;95877.50;;;10.86;93.36
40650;BME280;26342;42.826;23.992;2024-02-21T11:48:46;95870.38;;;10.92;89.42
40650;BME280;26342;42.826;23.992;2024-02-21T11:51:25;95863.91;;;10.88;94.65
40650;BME280;26342;42.826;23.992;2024-02-21T11:53:52;95861.31;;;10.93;90.63
40650;BME280;26342;42.826;23.992;2024-02-21T11:56:19;95859.84;;;11.02;92.13
40650;BME280;26342;42.826;23.992;2024-02-21T11:58:46;95861.09;;;11.16;97.83
40650;BME280;26342;42.826;23.992;2024-02-21T12:01:13;95847.56;;;11.23;93.87
40650;BME280;26342;42.826;23.992;2024-02-21T12:03:39;95845.50;;;11.30;93.91
40650;BME280;26342;42.826;23.992;2024-02-21T12:06:06;95846.97;;;11.43;89.75
40650;BME280;26342;42.826;23.992;2024-02-21T12:08:42;95845.16;;;11.49;88.17
40650;BME280;26342;42.826;23.992;2024-02-21T12:11:23;95835.03;;;11.51;86.45
40650;BME280;26342;42.826;23.992;2024-02-21T12:13:59;95833.97;;;11.52;86.62
40650;BME280;26342;42.826;23.992;2024-02-21T12:16:27;95834.28;;;11.55;85.65
40650;BME280;26342;42.826;23.992;2024-02-21T12:18:54;95827.09;;;11.61;80.53
40650;BME280;26342;42.826;23.992;2024-02-21T12:21:23;95832.97;;;11.58;88.87
40650;BME280;26342;42.826;23.992;2024-02-21T12:23:49;95809.44;;;11.55;87.92
40650;BME280;26342;42.826;23.992;2024-02-21T12:26:14;95820.75;;;11.67;83.03
40650;BME280;26342;42.826;23.992;2024-02-21T12:28:39;95821.81;;;11.66;89.71
40650;BME280;26342;42.826;23.992;2024-02-21T12:31:05;95822.09;;;11.64;85.17
40650;BME280;26342;42.826;23.992;2024-02-21T12:33:30;95826.31;;;11.60;81.80
40650;BME280;26342;42.826;23.992;2024-02-21T12:35:56;95816.03;;;11.47;78.87
40650;BME280;26342;42.826;23.992;2024-02-21T12:38:21;95811.28;;;11.54;85.36
40650;BME280;26342;42.826;23.992;2024-02-21T12:40:47;95808.63;;;11.54;76.32
40650;BME280;26342;42.826;23.992;2024-02-21T12:43:12;95808.03;;;11.52;79.83
40650;BME280;26342;42.826;23.992;2024-02-21T12:45:38;95805.00;;;11.43;76.52
40650;BME280;26342;42.826;23.992;2024-02-21T12:48:04;95802.41;;;11.49;82.63
40650;BME280;26342;42.826;23.992;2024-02-21T12:50:29;95805.53;;;11.67;88.81
40650;BME280;26342;42.826;23.992;2024-02-21T12:52:56;95796.44;;;11.68;83.87
40650;BME280;26342;42.826;23.992;2024-02-21T12:55:23;95793.56;;;11.75;78.20
40650;BME280;26342;42.826;23.992;2024-02-21T12:57:49;95788.19;;;11.97;79.13
40650;BME280;26342;42.826;23.992;2024-02-21T13:00:14;95780.69;;;11.94;76.05
40650;BME280;26342;42.826;23.992;2024-02-21T13:02:40;95785.25;;;11.98;76.16
40650;BME280;26342;42.826;23.992;2024-02-21T13:05:06;95790.34;;;12.00;76.84
40650;BME280;26342;42.826;23.992;2024-02-21T13:07:32;95792.25;;;12.05;79.56